Terminal Aerodrome Forecast
Issued by NWS

Home | Current Version | Previous Version | Graphics & Text | Print | Product List | Glossary On
Versions: 1 2 3 4 5 6 7 8 9 10 11 12 13 14 15 16 17 18 19 20 21 22 23 24 25 26 27 28 29 30 31
000
FTUS43 KLOT 271700
TAFMDW
TAF
KMDW 271730Z 2718/2818 29017G25KT P6SM SCT045
     FM272000 31018G27KT P6SM VCSH BKN035
     FM280100 33014G20KT P6SM SCT025 BKN035
     FM280300 01012G18KT P6SM BKN020
     FM280800 34012KT P6SM SCT060
     FM281300 02013G20KT P6SM SCT040=

USA.gov is the U.S. government's official web portal to all federal, state and local government web resources and services.